createdAt,value
2018-07-08T00:00:57.166Z,6.80
2018-07-08T00:03:33.468Z,7.20
2018-07-08T00:06:09.626Z,7.30
2018-07-08T00:08:46.575Z,7.27
2018-07-08T00:11:22.785Z,7.77
2018-07-08T00:13:59.695Z,7.17
2018-07-08T00:16:36.339Z,7.00
2018-07-08T00:19:12.931Z,6.97
2018-07-08T00:21:55.169Z,6.67
2018-07-08T00:24:30.973Z,6.70
2018-07-08T00:27:07.037Z,7.07
2018-07-08T00:29:43.211Z,6.73
2018-07-08T00:32:19.579Z,6.90
2018-07-08T00:34:56.210Z,6.40
2018-07-08T00:37:32.655Z,6.47
2018-07-08T00:40:08.726Z,6.53
2018-07-08T00:42:45.196Z,6.63
2018-07-08T00:45:21.147Z,6.67
2018-07-08T00:47:59.000Z,5.97
2018-07-08T00:50:35.392Z,6.17
2018-07-08T00:53:11.815Z,7.13
2018-07-08T00:55:49.221Z,6.30
2018-07-08T00:58:25.476Z,6.70
2018-07-08T01:01:01.762Z,6.43
2018-07-08T01:03:38.314Z,6.50
2018-07-08T01:06:14.646Z,5.90
2018-07-08T01:08:51.117Z,5.97
2018-07-08T01:11:27.278Z,5.70
2018-07-08T01:14:03.683Z,6.20
2018-07-08T01:16:39.836Z,6.23
2018-07-08T01:19:15.902Z,6.40
2018-07-08T01:21:52.214Z,6.10
2018-07-08T01:24:28.532Z,5.63
2018-07-08T01:27:04.816Z,5.80
2018-07-08T01:29:41.118Z,5.60
2018-07-08T01:32:17.415Z,5.93
2018-07-08T01:34:53.493Z,5.90
2018-07-08T01:37:29.472Z,5.63
2018-07-08T01:40:06.373Z,5.47
2018-07-08T01:42:42.439Z,5.37
2018-07-08T01:45:19.442Z,5.37
2018-07-08T01:47:55.565Z,6.70
2018-07-08T01:50:31.896Z,5.93
2018-07-08T01:53:08.191Z,5.97
2018-07-08T01:55:45.293Z,5.70
2018-07-08T01:58:21.355Z,5.40
2018-07-08T02:00:57.346Z,5.90
2018-07-08T02:03:33.426Z,5.70
2018-07-08T02:06:11.838Z,5.73
2018-07-08T02:08:48.469Z,5.33
2018-07-08T02:11:25.945Z,6.20
2018-07-08T02:14:02.125Z,5.43
2018-07-08T02:16:38.196Z,5.33
2018-07-08T02:19:14.396Z,5.47
2018-07-08T02:21:50.693Z,5.43
2018-07-08T02:24:27.221Z,5.60
2018-07-08T02:27:04.038Z,5.33
2018-07-08T02:29:40.912Z,5.77
2018-07-08T02:32:17.077Z,5.60
2018-07-08T02:34:53.541Z,5.13
2018-07-08T02:37:30.167Z,4.90
2018-07-08T02:40:06.588Z,5.13
2018-07-08T02:42:42.827Z,5.23
2018-07-08T02:45:19.024Z,5.33
2018-07-08T02:47:55.539Z,5.77
2018-07-08T02:50:32.208Z,4.77
2018-07-08T02:53:08.499Z,5.23
2018-07-08T02:55:44.847Z,5.10
2018-07-08T02:58:20.833Z,5.23
2018-07-08T03:00:57.152Z,5.00
2018-07-08T03:03:34.558Z,5.20
2018-07-08T03:06:10.793Z,4.73
2018-07-08T03:08:46.886Z,5.23
2018-07-08T03:11:23.140Z,4.53
2018-07-08T03:13:59.271Z,5.13
2018-07-08T03:16:35.901Z,4.83
2018-07-08T03:19:12.334Z,5.23
2018-07-08T03:21:48.414Z,4.63
2018-07-08T03:24:24.450Z,4.90
2018-07-08T03:27:01.737Z,5.67
2018-07-08T03:29:38.112Z,4.43
2018-07-08T03:32:14.427Z,5.40
2018-07-08T03:34:50.516Z,4.37
2018-07-08T03:37:26.793Z,5.03
2018-07-08T03:40:03.016Z,4.37
2018-07-08T03:42:39.439Z,4.70
2018-07-08T03:45:15.599Z,4.50
2018-07-08T03:47:52.533Z,4.00
2018-07-08T03:50:28.512Z,3.37
2018-07-08T03:53:04.598Z,3.47
2018-07-08T03:55:41.746Z,4.43
2018-07-08T03:58:17.832Z,3.90
2018-07-08T04:00:54.041Z,3.50
2018-07-08T04:03:30.139Z,3.30
2018-07-08T04:06:06.331Z,2.80
2018-07-08T04:08:43.009Z,3.00
2018-07-08T04:11:19.175Z,3.73
2018-07-08T04:13:55.485Z,2.53
2018-07-08T04:16:31.753Z,3.37
2018-07-08T04:19:08.034Z,3.60
2018-07-08T04:21:44.225Z,3.77
2018-07-08T04:24:20.659Z,3.93
2018-07-08T04:26:56.824Z,3.90
2018-07-08T04:29:32.867Z,3.90
2018-07-08T04:32:08.965Z,4.77
2018-07-08T04:34:45.563Z,4.40
2018-07-08T04:37:21.657Z,4.70
2018-07-08T04:39:57.932Z,4.13
2018-07-08T04:42:34.058Z,5.23
2018-07-08T04:45:10.139Z,4.77
2018-07-08T04:47:53.051Z,5.50
2018-07-08T04:50:29.328Z,5.70
2018-07-08T04:53:06.074Z,5.60
2018-07-08T04:55:42.151Z,5.23
2018-07-08T04:58:18.354Z,5.90
2018-07-08T05:00:54.368Z,6.00
2018-07-08T05:03:30.696Z,5.27
2018-07-08T05:06:06.971Z,5.50
2018-07-08T05:08:42.943Z,4.97
2018-07-08T05:11:18.982Z,5.33
2018-07-08T05:13:55.146Z,5.47
2018-07-08T05:16:31.557Z,4.93
2018-07-08T05:19:08.722Z,4.43
2018-07-08T05:21:44.756Z,4.60
2018-07-08T05:24:20.747Z,3.10
2018-07-08T05:26:56.772Z,3.00
2018-07-08T05:29:33.568Z,2.53
2018-07-08T05:32:10.135Z,2.60
2018-07-08T05:34:46.224Z,2.27
2018-07-08T05:37:22.798Z,2.57
2018-07-08T05:39:59.774Z,2.40
2018-07-08T05:42:39.244Z,2.63
2018-07-08T05:45:16.832Z,2.80
2018-07-08T05:47:54.383Z,2.87
2018-07-08T05:50:30.727Z,2.57
2018-07-08T05:53:09.072Z,2.67
2018-07-08T05:55:45.168Z,2.90
2018-07-08T05:58:21.207Z,2.83
2018-07-08T06:00:58.130Z,2.60
2018-07-08T06:03:34.565Z,2.73
2018-07-08T06:06:10.916Z,2.73
2018-07-08T06:08:47.457Z,2.10
2018-07-08T06:11:23.625Z,2.50
2018-07-08T06:13:59.898Z,3.10
2018-07-08T06:16:36.587Z,2.73
2018-07-08T06:19:12.798Z,2.83
2018-07-08T06:21:49.357Z,2.03
2018-07-08T06:24:26.213Z,2.80
2018-07-08T06:27:02.416Z,2.90
2018-07-08T06:29:39.527Z,2.93
2018-07-08T06:32:16.562Z,2.80
2018-07-08T06:34:52.754Z,3.03
2018-07-08T06:37:28.883Z,3.10
2018-07-08T06:40:05.281Z,2.87
2018-07-08T06:42:42.815Z,2.43
2018-07-08T06:45:19.410Z,2.80
2018-07-08T06:47:55.679Z,2.73
2018-07-08T06:50:32.004Z,3.20
2018-07-08T06:53:08.081Z,2.67
2018-07-08T06:55:46.847Z,2.93
2018-07-08T06:58:23.020Z,2.60
2018-07-08T07:00:59.674Z,2.97
2018-07-08T07:03:36.006Z,2.50
2018-07-08T07:06:12.114Z,2.70
2018-07-08T07:08:48.187Z,3.00
2018-07-08T07:11:26.568Z,2.63
2018-07-08T07:14:03.823Z,2.50
2018-07-08T07:16:40.012Z,2.90
2018-07-08T07:19:16.519Z,2.90
2018-07-08T07:21:53.483Z,3.20
2018-07-08T07:24:29.742Z,3.00
2018-07-08T07:27:07.485Z,2.77
2018-07-08T07:29:43.664Z,2.97
2018-07-08T07:32:19.800Z,2.83
2018-07-08T07:34:55.982Z,2.60
2018-07-08T07:37:33.280Z,3.23
2018-07-08T07:40:09.413Z,2.73
2018-07-08T07:42:46.003Z,2.27
2018-07-08T07:45:22.863Z,3.23
2018-07-08T07:47:59.828Z,2.50
2018-07-08T07:50:35.967Z,2.90
2018-07-08T07:53:12.267Z,2.80
2018-07-08T07:55:52.992Z,2.77
2018-07-08T07:58:31.799Z,2.53
2018-07-08T08:01:08.870Z,2.20
2018-07-08T08:03:44.802Z,2.47
2018-07-08T08:06:21.598Z,2.53
2018-07-08T08:08:57.977Z,2.80
2018-07-08T08:11:36.585Z,2.30
2018-07-08T08:14:16.008Z,2.40
2018-07-08T08:16:52.925Z,2.63
2018-07-08T08:19:29.284Z,2.77
2018-07-08T08:22:05.707Z,2.50
2018-07-08T08:24:43.000Z,2.67
2018-07-08T08:27:19.318Z,3.10
2018-07-08T08:29:59.036Z,3.23
2018-07-08T08:32:42.182Z,2.90
2018-07-08T08:35:21.061Z,2.20
2018-07-08T08:37:58.111Z,2.23
2018-07-08T08:40:34.441Z,2.40
2018-07-08T08:43:11.632Z,1.97
2018-07-08T08:45:50.825Z,2.40
2018-07-08T08:48:31.568Z,2.50
2018-07-08T08:51:07.705Z,2.47
2018-07-08T08:53:44.250Z,2.53
2018-07-08T08:56:22.762Z,2.37
2018-07-08T08:59:01.537Z,2.50
2018-07-08T09:01:38.058Z,2.30
2018-07-08T09:04:18.046Z,3.17
2018-07-08T09:06:54.411Z,2.57
2018-07-08T09:09:31.298Z,3.53
2018-07-08T09:12:08.028Z,2.70
2018-07-08T09:14:44.795Z,2.53
2018-07-08T09:17:24.124Z,2.87
2018-07-08T09:20:00.581Z,2.40
2018-07-08T09:22:38.732Z,2.30
2018-07-08T09:25:15.233Z,2.30
2018-07-08T09:27:51.534Z,2.77
2018-07-08T09:30:27.876Z,3.27
2018-07-08T09:33:07.582Z,2.80
2018-07-08T09:35:48.534Z,2.97
2018-07-08T09:38:26.856Z,3.00
2018-07-08T09:41:06.008Z,3.20
2018-07-08T09:43:45.334Z,2.43
2018-07-08T09:46:26.029Z,2.97
2018-07-08T09:49:08.400Z,2.73
2018-07-08T09:51:47.708Z,2.97
2018-07-08T09:54:29.849Z,2.80
2018-07-08T09:57:09.088Z,3.20
2018-07-08T09:59:48.511Z,2.90
2018-07-08T10:02:28.188Z,2.70
2018-07-08T10:05:07.828Z,2.90
2018-07-08T10:10:28.114Z,3.20
2018-07-08T10:13:05.028Z,3.23
2018-07-08T10:15:43.926Z,2.70
2018-07-08T10:18:20.635Z,3.03
2018-07-08T10:20:56.968Z,3.20
2018-07-08T10:23:33.213Z,3.10
2018-07-08T10:26:11.492Z,3.10
2018-07-08T10:28:48.034Z,3.30
2018-07-08T10:31:35.198Z,3.10
2018-07-08T10:34:11.477Z,3.23
2018-07-08T10:36:48.035Z,3.10
2018-07-08T10:39:27.442Z,3.13
2018-07-08T10:42:03.947Z,3.00
2018-07-08T10:44:40.149Z,4.10
2018-07-08T10:47:16.752Z,3.43
2018-07-08T10:49:54.524Z,3.03
2018-07-08T10:52:34.299Z,3.40
2018-07-08T10:55:13.973Z,3.40
2018-07-08T10:57:54.771Z,3.40
2018-07-08T11:00:36.182Z,3.60
2018-07-08T11:03:15.237Z,3.77
2018-07-08T11:05:54.753Z,4.20
2018-07-08T11:08:31.891Z,3.50
2018-07-08T11:11:10.771Z,4.27
2018-07-08T11:13:47.118Z,3.53
2018-07-08T11:16:23.451Z,3.97
2018-07-08T11:18:59.506Z,3.80
2018-07-08T11:21:38.015Z,3.30
2018-07-08T11:24:15.253Z,4.30
2018-07-08T11:26:51.500Z,3.47
2018-07-08T11:29:27.854Z,3.90
2018-07-08T11:32:04.135Z,4.60
2018-07-08T11:34:41.026Z,4.67
2018-07-08T11:37:22.233Z,3.60
2018-07-08T11:40:02.004Z,3.80
2018-07-08T11:42:43.389Z,4.07
2018-07-08T11:45:24.789Z,4.03
2018-07-08T11:48:05.497Z,4.00
2018-07-08T11:50:43.599Z,4.27
2018-07-08T11:53:22.334Z,3.93
2018-07-08T11:56:05.023Z,3.60
2018-07-08T11:58:42.121Z,3.87
2018-07-08T12:01:18.453Z,4.00
2018-07-08T12:03:57.686Z,4.20
2018-07-08T12:06:34.101Z,4.00
2018-07-08T12:09:10.918Z,5.07
2018-07-08T12:11:48.076Z,4.90
2018-07-08T12:14:24.196Z,4.50
2018-07-08T12:17:04.451Z,4.53
2018-07-08T12:19:40.985Z,4.20
2018-07-08T12:22:23.192Z,4.17
2018-07-08T12:24:59.696Z,4.57
2018-07-08T12:27:36.281Z,4.37
2018-07-08T12:30:12.699Z,4.30
2018-07-08T12:32:48.989Z,4.17
2018-07-08T12:35:30.186Z,4.00
2018-07-08T12:38:09.371Z,4.33
2018-07-08T12:40:48.621Z,4.47
2018-07-08T12:43:28.695Z,4.53
2018-07-08T12:46:09.484Z,4.67
2018-07-08T12:48:47.825Z,4.50
2018-07-08T12:51:30.775Z,5.73
2018-07-08T12:54:08.194Z,5.13
2018-07-08T12:56:44.528Z,4.30
2018-07-08T12:59:20.219Z,4.37
2018-07-08T13:01:56.678Z,4.47
2018-07-08T13:04:33.174Z,4.67
2018-07-08T13:07:15.318Z,4.63
2018-07-08T13:09:52.695Z,4.77
2018-07-08T13:12:33.163Z,4.83
2018-07-08T13:15:14.255Z,4.70
2018-07-08T13:17:52.194Z,4.60
2018-07-08T13:20:32.202Z,4.97
2018-07-08T13:23:13.763Z,5.37
2018-07-08T13:25:53.552Z,4.60
2018-07-08T13:28:32.530Z,4.37
2018-07-08T13:31:12.400Z,4.83
2018-07-08T13:33:54.788Z,4.80
2018-07-08T13:36:36.216Z,5.17
2018-07-08T13:39:17.589Z,4.97
2018-07-08T13:41:56.418Z,6.10
2018-07-08T13:44:34.745Z,5.27
2018-07-08T13:47:14.149Z,4.50
2018-07-08T13:49:50.724Z,4.50
2018-07-08T14:16:15.794Z,5.90
2018-07-08T14:18:52.020Z,5.23
2018-07-08T14:21:29.461Z,5.30
2018-07-08T14:24:05.891Z,5.20
2018-07-08T14:26:42.434Z,5.60
2018-07-08T14:29:22.494Z,5.43
2018-07-08T14:32:02.274Z,5.30
2018-07-08T14:34:42.267Z,5.07
2018-07-08T14:37:20.921Z,5.10
2018-07-08T14:40:00.456Z,5.70
2018-07-08T14:42:40.037Z,6.17
2018-07-08T14:45:16.996Z,5.77
2018-07-08T14:47:56.470Z,5.83
2018-07-08T14:50:32.525Z,5.20
2018-07-08T14:53:09.037Z,5.10
2018-07-08T14:55:45.999Z,5.63
2018-07-08T14:58:25.370Z,5.30
2018-07-08T15:01:06.751Z,6.10
2018-07-08T15:03:47.309Z,6.03
2018-07-08T15:06:26.907Z,5.07
2018-07-08T15:09:08.799Z,5.67
2018-07-08T15:11:50.308Z,5.47
2018-07-08T15:14:27.996Z,5.67
2018-07-08T15:17:07.454Z,5.70
2018-07-08T15:19:46.489Z,5.53
2018-07-08T15:22:25.772Z,5.10
2018-07-08T15:25:07.245Z,5.83
2018-07-08T15:27:43.530Z,5.37
2018-07-08T15:30:22.240Z,4.97
2018-07-08T15:32:59.324Z,5.10
2018-07-08T15:35:35.639Z,5.40
2018-07-08T15:38:18.053Z,4.93
2018-07-08T15:40:54.372Z,5.50
2018-07-08T15:43:33.691Z,5.43
2018-07-08T15:46:20.517Z,5.63
2018-07-08T15:48:57.685Z,5.33
2018-07-08T15:51:34.314Z,5.30
2018-07-08T15:54:18.597Z,5.30
2018-07-08T15:56:56.993Z,5.10
2018-07-08T15:59:53.104Z,4.83
2018-07-08T16:02:33.607Z,5.10
2018-07-08T16:08:12.017Z,5.93
2018-07-08T16:10:52.938Z,4.80
2018-07-08T16:13:34.104Z,4.73
2018-07-08T16:16:13.687Z,4.93
2018-07-08T16:18:54.399Z,4.90
2018-07-08T16:21:36.205Z,4.80
2018-07-08T16:24:15.893Z,4.63
2018-07-08T16:39:59.162Z,5.30
2018-07-08T16:42:40.150Z,4.80
2018-07-08T16:45:20.144Z,4.87
2018-07-08T16:47:59.878Z,4.93
2018-07-08T16:50:37.605Z,5.67
2018-07-08T16:53:17.070Z,4.63
2018-07-08T17:11:58.409Z,4.83
2018-07-08T17:14:44.935Z,4.40
2018-07-08T17:17:21.430Z,4.57
2018-07-08T17:20:02.548Z,4.60
2018-07-08T17:22:41.224Z,4.13
2018-07-08T17:25:20.823Z,4.30
2018-07-08T17:27:57.468Z,4.20
2018-07-08T17:30:40.324Z,4.00
2018-07-08T17:33:21.741Z,4.07
2018-07-08T17:36:02.245Z,4.10
2018-07-08T17:38:42.999Z,4.20
2018-07-08T17:41:22.552Z,3.83
2018-07-08T17:44:05.252Z,3.90
2018-07-08T17:46:44.084Z,3.83
2018-07-08T17:52:09.183Z,4.33
2018-07-08T17:54:46.809Z,4.03
2018-07-08T17:57:25.749Z,4.23
2018-07-08T18:00:06.528Z,4.30
2018-07-08T18:02:45.568Z,4.57
2018-07-08T18:05:21.646Z,4.23
2018-07-08T18:07:57.564Z,4.23
2018-07-08T18:10:35.225Z,4.20
2018-07-08T18:13:11.485Z,4.50
2018-07-08T18:15:48.856Z,4.60
2018-07-08T18:18:30.103Z,4.27
2018-07-08T18:21:10.336Z,4.50
2018-07-08T18:23:49.737Z,4.50
2018-07-08T18:26:27.825Z,4.90
2018-07-08T18:29:04.554Z,4.50
2018-07-08T18:31:43.746Z,3.90
2018-07-08T18:34:20.149Z,4.00
2018-07-08T18:36:56.493Z,4.73
2018-07-08T18:39:32.789Z,4.53
2018-07-08T18:42:13.046Z,4.93
2018-07-08T18:44:51.838Z,4.63
2018-07-08T18:47:30.508Z,4.70
2018-07-08T18:50:09.660Z,4.70
2018-07-08T18:52:46.284Z,4.53
2018-07-08T18:55:26.227Z,5.87
2018-07-08T18:58:03.337Z,4.57
2018-07-08T19:00:39.602Z,4.93
2018-07-08T19:03:15.239Z,5.30
2018-07-08T19:05:54.476Z,4.73
2018-07-08T19:08:33.695Z,5.60
2018-07-08T19:11:13.402Z,4.60
2018-07-08T19:16:33.788Z,4.90
2018-07-08T19:19:14.878Z,4.80
2018-07-08T19:21:54.097Z,4.63
2018-07-08T19:24:34.110Z,4.70
2018-07-08T19:27:13.266Z,4.40
2018-07-08T19:29:50.159Z,4.80
2018-07-08T19:32:28.314Z,5.27
2018-07-08T19:35:04.556Z,4.97
2018-07-08T19:37:40.661Z,5.67
2018-07-08T19:40:20.553Z,5.67
2018-07-08T19:42:59.074Z,5.57
2018-07-08T19:45:35.567Z,5.50
2018-07-08T19:48:11.889Z,6.57
2018-07-08T19:50:48.428Z,5.60
2018-07-08T19:53:24.618Z,5.23
2018-07-08T19:56:02.081Z,5.23
2018-07-08T19:58:41.240Z,5.13
2018-07-08T20:01:19.615Z,4.90
2018-07-08T20:03:56.699Z,5.47
2018-07-08T20:06:35.908Z,5.50
2018-07-08T20:09:12.508Z,5.03
2018-07-08T20:11:49.538Z,5.40
2018-07-08T20:14:25.957Z,5.23
2018-07-08T20:17:02.081Z,5.37
2018-07-08T20:19:40.670Z,5.20
2018-07-08T20:22:17.645Z,5.23
2018-07-08T20:24:53.852Z,4.67
2018-07-08T20:27:30.595Z,5.77
2018-07-08T20:30:06.789Z,5.17
2018-07-08T20:32:44.613Z,5.03
2018-07-08T20:35:22.962Z,4.97
2018-07-08T20:38:02.918Z,5.60
2018-07-08T20:40:39.250Z,5.23
2018-07-08T20:43:16.216Z,5.23
2018-07-08T20:45:53.090Z,5.37
2018-07-08T20:48:29.497Z,6.70
2018-07-08T20:51:05.817Z,5.93
2018-07-08T20:53:42.776Z,5.17
2018-07-08T20:56:20.184Z,5.47
2018-07-08T20:58:56.485Z,5.80
2018-07-08T21:01:32.832Z,5.47
2018-07-08T21:04:09.253Z,5.87
2018-07-08T21:06:46.150Z,5.50
2018-07-08T21:09:23.021Z,5.60
2018-07-08T21:11:59.353Z,5.50
2018-07-08T21:14:35.628Z,6.03
2018-07-08T21:17:11.663Z,6.33
2018-07-08T21:19:47.963Z,6.10
2018-07-08T21:22:24.509Z,5.43
2018-07-08T21:25:01.411Z,5.23
2018-07-08T21:27:38.565Z,5.40
2018-07-08T21:30:15.072Z,5.60
2018-07-08T21:32:51.197Z,5.43
2018-07-08T21:35:27.673Z,5.60
2018-07-08T21:38:04.332Z,5.70
2018-07-08T21:40:40.582Z,5.47
2018-07-08T21:43:16.815Z,5.70
2018-07-08T21:45:53.240Z,5.77
2018-07-08T21:48:29.876Z,5.30
2018-07-08T21:51:06.243Z,6.07
2018-07-08T21:53:42.718Z,5.23
2018-07-08T21:56:19.231Z,5.60
2018-07-08T21:58:55.967Z,5.70
2018-07-08T22:01:40.730Z,5.80
2018-07-08T22:04:17.018Z,6.27
2018-07-08T22:06:53.481Z,5.47
2018-07-08T22:09:30.451Z,6.00
2018-07-08T22:12:09.100Z,5.13
2018-07-08T22:14:45.515Z,5.63
2018-07-08T22:17:21.947Z,6.80
2018-07-08T22:19:58.106Z,6.13
2018-07-08T22:22:35.624Z,6.10
2018-07-08T22:25:12.013Z,5.63
2018-07-08T22:27:48.304Z,5.63
2018-07-08T22:30:24.563Z,6.43
2018-07-08T22:33:00.865Z,5.70
2018-07-08T22:35:37.437Z,6.53
2018-07-08T22:38:13.860Z,5.37
2018-07-08T22:40:50.167Z,5.20
2018-07-08T22:43:26.706Z,5.83
2018-07-08T22:46:02.852Z,6.73
2018-07-08T22:48:39.417Z,7.47
2018-07-08T22:51:16.059Z,6.97
2018-07-08T22:53:52.032Z,7.60
2018-07-08T22:56:28.415Z,7.43
2018-07-08T22:59:04.167Z,6.77
2018-07-08T23:01:51.192Z,6.63
2018-07-08T23:04:27.393Z,8.37
2018-07-08T23:07:03.786Z,7.07
2018-07-08T23:09:40.736Z,8.97
2018-07-08T23:12:17.209Z,7.80
2018-07-08T23:14:53.161Z,7.77
2018-07-08T23:17:30.010Z,7.63
2018-07-08T23:20:06.119Z,8.33
2018-07-08T23:22:54.023Z,8.20
2018-07-08T23:25:30.360Z,6.93
2018-07-08T23:28:06.609Z,6.60
2018-07-08T23:30:43.040Z,5.97
2018-07-08T23:33:19.442Z,6.67
2018-07-08T23:35:55.545Z,6.33
2018-07-08T23:38:32.119Z,6.53
2018-07-08T23:41:09.611Z,6.60
2018-07-08T23:43:46.074Z,7.40
2018-07-08T23:46:23.209Z,7.37
2018-07-08T23:48:59.224Z,7.47
2018-07-08T23:51:35.411Z,6.90
2018-07-08T23:54:11.649Z,6.67
2018-07-08T23:56:47.934Z,7.30
2018-07-08T23:59:24.963Z,6.30
